Granada, Nicaragua

11:41 AM CST en Julio 25, 2014 (GMT -0600)
Augusto Cesar Sandino (MNMG) Alt 184 ft | 12.14 °N, 86.17 °W | Change Station

Current weather conditions updated 41 minutes ago

Scattered Clouds
Nubes dispersas
91 ° F
Sensación térmica 98 ° F
N
16
Viento Variable Viento desde Este

Hoy se prevé un día Más frío que ayer. Tormentas dispersas..

Hoy
Alta -- | Baja -- ° F
--% Posibilidad de precipitaciones
Ayer
Alta -- | Baja -- ° F
Precip. -- pul
5:29 AM 6:11 PM
Creciente menguante, 1% visible
Presión 29.83 pul
Visibilidad 6.2 Millas
Nubes Nubes dispersas 2200 ft
Índice de calor 98 ° F
Punto de rocío 72 ° F
Humedad 52%
Precipitaciones 0.00 pul
Espesor de la nieve No disponible.
UV 13 de una escala de 12
Polen No disponible.
Calidad del aire No disponible.
Flu Activity No disponible.
METAR MNMG 251700Z 08014KT 9999 SCT022 33/22 Q1010 A2984 NOSIG

More Conditions Fewer Conditions

Presión 29.83 pul
Visibilidad 6.2 Millas
Nubes Nubes dispersas 2200 ft
Índice de calor 98 ° F
Punto de rocío 72 ° F
Humedad 52%
Precipitaciones 0.00 pul
Espesor de la nieve No disponible.
UV 13 de una escala de 12
Polen No disponible.
Calidad del aire No disponible.
Flu Activity No disponible.
METAR MNMG 251700Z 08014KT 9999 SCT022 33/22 Q1010 A2984 NOSIG

More Conditions Fewer Conditions

10-Day Weather Forecast

Almanac

Astronomía

Jul. 25, 2014 Salida Puesta
Hora real 5:29 AM CST 6:11 PM CST
Crepúsculo civil 5:06 AM CST 6:33 PM CST
Crepúsculo náutico 4:40 AM CST 7:00 PM CST
Crepúsculo astronómico 4:13 AM CST 7:27 PM CST
Luna 4:22 AM CST 5:16 PM CST
Horas de luz 13h 26m
Horas de luz
12h 41m
Tomorrow will be 0m 26s shorter.
Creciente menguante, 1% of the Moon is Illuminated
Hoy
Creciente menguante
Jul 26
Nueva
Ago 3
Cuarto creciente
Ago 10
Luna llena
Ago 17
Cuarto menguante

Extremos de hoy

Máximos del país Bajas del país

Community

WunderPhotos

Upload Photos

1,737,371 ¡fotos cargadas!

Nearby

Calidad del aire

Not available.

Grosos de nieve

Not available.

Actividad de terremotos

Ciudad Distance Mag. Tiempo y dato
No hay informes recientes de la actividad sísmica.
Magnitud mínima muestra es 2,5.

Temperaturas de aguas costeras

Lugar Temperatura
Sin partes meteorológicos de las estaciones

Estaciones meteorológicas cercanas

No hay estaciones meteorológicas personales en esta zona.